Time;durP1;ratioP1;P1;durP2;ratioP2;P2;SDS_P1;SDS_P2;PMS_P1;PMS_P2;Temp;Humidity;BMP_temperature;BMP_pressure;BME280_temperature;BME280_humidity;BME280_pressure;Samples;Min_cycle;Max_cycle;Signal;HPM_P1;HPM_P2
2022/12/10 00:01:04;;;;;;;64.47;35.27;;;1.50;99.90;;;;;;5064792;28;20131;-74
2022/12/10 00:03:30;;;;;;;53.77;31.40;;;1.40;99.90;;;;;;5064932;28;20062;-74
2022/12/10 00:06:00;;;;;;;66.93;35.73;;;1.50;99.90;;;;;;5064923;28;20048;-74
2022/12/10 00:08:25;;;;;;;81.77;35.23;;;1.50;99.90;;;;;;5064866;28;20119;-74
2022/12/10 00:10:51;;;;;;;74.53;37.37;;;1.50;99.90;;;;;;5064985;28;20550;-74
2022/12/10 00:13:16;;;;;;;67.00;32.87;;;1.50;99.90;;;;;;5063558;28;20142;-75
2022/12/10 00:15:42;;;;;;;63.70;37.10;;;1.50;99.90;;;;;;5064927;28;20490;-75
2022/12/10 00:18:08;;;;;;;61.40;35.23;;;1.50;99.90;;;;;;5064960;28;20088;-74
2022/12/10 00:20:35;;;;;;;69.10;35.70;;;1.50;99.90;;;;;;5064348;28;20048;-74
2022/12/10 00:23:01;;;;;;;75.17;38.93;;;1.60;99.90;;;;;;5064236;28;20072;-74
2022/12/10 00:25:26;;;;;;;65.33;35.07;;;1.50;99.90;;;;;;5064725;28;20125;-75
2022/12/10 00:27:52;;;;;;;65.77;36.20;;;1.60;99.90;;;;;;5057818;28;20041;-74
2022/12/10 00:30:17;;;;;;;76.53;39.03;;;1.60;99.90;;;;;;5063616;28;20552;-74
2022/12/10 00:32:43;;;;;;;68.40;33.07;;;1.60;99.90;;;;;;5064160;28;20048;-75
2022/12/10 00:35:09;;;;;;;77.77;37.67;;;1.60;99.90;;;;;;5064435;28;20178;-74
2022/12/10 00:37:34;;;;;;;75.93;36.93;;;1.60;99.90;;;;;;5064626;28;20048;-74
2022/12/10 00:40:00;;;;;;;76.23;39.20;;;1.60;99.90;;;;;;5045763;28;20442;-75
2022/12/10 00:42:25;;;;;;;76.27;38.77;;;1.60;99.90;;;;;;5043548;28;20052;-74
2022/12/10 00:44:51;;;;;;;78.97;37.30;;;1.60;99.90;;;;;;5044391;28;20073;-74
2022/12/10 00:47:16;;;;;;;70.20;36.20;;;1.60;99.90;;;;;;5044670;28;20056;-75
2022/12/10 00:49:42;;;;;;;66.67;34.00;;;1.60;99.90;;;;;;5044682;28;20723;-75
2022/12/10 00:52:08;;;;;;;70.87;35.20;;;1.60;99.90;;;;;;5060264;28;20044;-74
2022/12/10 00:54:33;;;;;;;69.10;37.10;;;1.60;99.90;;;;;;5063669;28;20529;-74
2022/12/10 00:56:59;;;;;;;83.17;39.23;;;1.60;99.90;;;;;;5063170;28;20036;-75
2022/12/10 00:59:24;;;;;;;79.63;36.77;;;1.60;99.90;;;;;;5063089;28;20548;-74
2022/12/10 01:01:50;;;;;;;71.50;38.80;;;1.60;99.90;;;;;;5063267;28;20087;-75
2022/12/10 01:04:17;;;;;;;61.47;33.60;;;1.60;99.90;;;;;;5064419;28;20272;-74
2022/12/10 01:06:51;;;;;;;68.03;34.60;;;1.60;99.90;;;;;;5063593;28;20098;-75
2022/12/10 01:09:20;;;;;;;60.80;35.63;;;1.60;99.90;;;;;;5064158;28;20127;-74
2022/12/10 01:11:47;;;;;;;62.47;37.37;;;1.60;99.90;;;;;;5062970;28;20060;-75
2022/12/10 01:14:18;;;;;;;52.13;32.20;;;1.60;99.90;;;;;;5063753;28;20085;-74
2022/12/10 01:16:44;;;;;;;59.73;35.27;;;1.70;99.90;;;;;;5064249;28;20075;-74
2022/12/10 01:19:11;;;;;;;63.13;34.93;;;1.70;99.90;;;;;;5062887;28;20567;-75
2022/12/10 01:21:36;;;;;;;51.00;32.63;;;1.60;99.90;;;;;;5062447;28;20049;-75
2022/12/10 01:24:03;;;;;;;58.07;33.77;;;1.60;99.90;;;;;;5062440;28;20041;-75
2022/12/10 01:26:31;;;;;;;65.10;33.07;;;1.60;99.90;;;;;;5055074;28;20083;-75
2022/12/10 01:28:58;;;;;;;56.57;32.97;;;1.60;99.90;;;;;;5045197;28;20434;-74
2022/12/10 01:31:35;;;;;;;67.87;33.80;;;1.60;99.90;;;;;;5045576;28;20450;-75
2022/12/10 01:34:01;;;;;;;65.83;35.07;;;1.60;99.90;;;;;;5063342;28;20041;-74
2022/12/10 01:36:35;;;;;;;63.60;33.27;;;1.60;99.90;;;;;;5062731;28;20097;-74
2022/12/10 01:39:02;;;;;;;63.50;35.40;;;1.60;99.90;;;;;;5063314;28;20438;-74
2022/12/10 01:41:31;;;;;;;63.47;33.23;;;1.60;99.90;;;;;;5060727;28;20044;-74
2022/12/10 01:44:25;;;;;;;68.67;33.67;;;1.60;99.90;;;;;;5063019;28;20481;-74
2022/12/10 01:46:56;;;;;;;58.93;32.60;;;1.60;99.90;;;;;;5054176;28;20092;-75
2022/12/10 01:49:25;;;;;;;59.17;35.27;;;1.70;99.90;;;;;;5063627;28;20067;-74
2022/12/10 01:51:55;;;;;;;67.20;32.50;;;1.60;99.90;;;;;;5062852;28;20044;-75
2022/12/10 01:54:24;;;;;;;63.13;34.17;;;1.60;99.90;;;;;;5063125;28;20513;-75
2022/12/10 01:57:04;;;;;;;59.47;33.43;;;1.60;99.90;;;;;;5061742;28;20131;-75
2022/12/10 01:59:30;;;;;;;61.93;34.43;;;1.60;99.90;;;;;;5063345;28;20049;-76
2022/12/10 02:05:13;;;;;;;52.93;30.47;;;1.60;99.90;;;;;;5024163;22;20046;-74
2022/12/10 02:08:03;;;;;;;52.70;29.75;;;1.60;99.90;;;;;;5003692;28;20128;-73
2022/12/10 02:10:49;;;;;;;51.10;31.20;;;1.50;99.90;;;;;;5003666;28;20052;-73
2022/12/10 02:13:31;;;;;;;58.00;29.97;;;1.50;99.90;;;;;;4985354;28;20480;-73
2022/12/10 02:16:04;;;;;;;53.70;27.75;;;1.50;99.90;;;;;;5019045;28;20149;-74
2022/12/10 02:18:34;;;;;;;49.87;30.27;;;1.40;99.90;;;;;;5019231;28;20572;-74
2022/12/10 02:21:16;;;;;;;53.37;27.77;;;1.40;99.90;;;;;;5041708;28;20107;-74
2022/12/10 02:23:54;;;;;;;63.25;31.25;;;1.40;99.90;;;;;;5042131;28;20044;-73
2022/12/10 02:26:28;;;;;;;47.97;30.80;;;1.40;99.90;;;;;;5035685;28;20041;-74
2022/12/10 02:29:24;;;;;;;47.47;28.13;;;1.40;99.90;;;;;;5023307;28;20041;-73
2022/12/10 02:32:16;;;;;;;51.23;27.83;;;1.30;99.90;;;;;;5005993;28;20463;-74
2022/12/10 02:34:47;;;;;;;47.45;28.42;;;1.30;99.90;;;;;;5024868;28;20037;-74
2022/12/10 02:37:28;;;;;;;39.67;28.97;;;1.40;99.90;;;;;;5026164;28;20903;-73
2022/12/10 02:39:56;;;;;;;49.97;27.13;;;1.30;99.90;;;;;;5028735;28;20045;-73
2022/12/10 02:42:25;;;;;;;55.17;28.13;;;1.30;99.90;;;;;;5036486;28;20228;-73
2022/12/10 02:44:53;;;;;;;58.87;31.10;;;1.30;99.90;;;;;;5025755;28;20511;-73
2022/12/10 02:47:19;;;;;;;50.57;28.43;;;1.40;99.90;;;;;;5025924;28;20493;-75
2022/12/10 02:49:49;;;;;;;50.30;30.77;;;1.40;99.90;;;;;;5028215;28;20081;-74
2022/12/10 02:52:18;;;;;;;53.03;30.30;;;1.40;99.90;;;;;;5026350;28;20048;-74
2022/12/10 02:54:46;;;;;;;54.77;30.60;;;1.40;99.90;;;;;;5010073;28;20049;-73
2022/12/10 02:57:28;;;;;;;61.60;32.33;;;1.40;99.90;;;;;;5024549;28;20127;-73
2022/12/10 03:00:06;;;;;;;53.80;31.05;;;1.40;99.90;;;;;;5005642;28;20710;-73
2022/12/10 03:02:42;;;;;;;62.30;33.37;;;1.40;99.90;;;;;;5005784;28;20147;-73
2022/12/10 03:05:27;;;;;;;60.83;29.37;;;1.40;99.90;;;;;;5005911;28;20050;-74
2022/12/10 03:07:59;;;;;;;49.50;28.10;;;1.40;99.90;;;;;;5005419;28;20058;-74
2022/12/10 03:10:28;;;;;;;41.85;28.48;;;1.40;99.90;;;;;;5005939;28;20121;-74
2022/12/10 03:13:04;;;;;;;38.17;28.90;;;1.40;99.90;;;;;;5004574;28;20104;-74
2022/12/10 03:15:33;;;;;;;56.17;32.00;;;1.40;99.90;;;;;;5005301;28;20096;-74
2022/12/10 03:18:03;;;;;;;45.87;28.13;;;1.40;99.90;;;;;;5005281;28;20052;-74
2022/12/10 03:20:32;;;;;;;62.27;32.57;;;1.40;99.90;;;;;;4989166;28;20041;-74
2022/12/10 03:22:58;;;;;;;53.53;28.93;;;1.40;99.90;;;;;;5006065;28;20046;-73
2022/12/10 03:25:26;;;;;;;53.90;27.40;;;1.40;99.90;;;;;;5005728;28;20064;-73
2022/12/10 03:27:55;;;;;;;50.33;30.03;;;1.40;99.90;;;;;;5024524;28;20041;-73
2022/12/10 03:30:22;;;;;;;58.80;35.40;;;1.40;99.90;;;;;;5008544;28;20038;-73
2022/12/10 03:32:48;;;;;;;45.30;29.20;;;1.40;99.90;;;;;;5025430;28;20045;-74
2022/12/10 03:35:15;;;;;;;73.63;36.77;;;1.40;99.90;;;;;;5025477;28;20045;-74
2022/12/10 03:37:41;;;;;;;63.27;34.13;;;1.40;99.90;;;;;;5025172;28;20048;-73
2022/12/10 03:40:09;;;;;;;63.73;31.33;;;1.40;99.90;;;;;;5024243;28;20042;-73
2022/12/10 03:42:38;;;;;;;75.80;32.13;;;1.40;99.90;;;;;;5025112;28;20278;-73
2022/12/10 03:45:04;;;;;;;101.33;35.00;;;1.40;99.90;;;;;;5025949;28;20673;-73
2022/12/10 03:47:30;;;;;;;73.30;34.57;;;1.40;99.90;;;;;;5033312;28;20048;-74
2022/12/10 03:49:55;;;;;;;105.10;40.47;;;1.40;99.90;;;;;;5042870;28;20037;-73
2022/12/10 03:52:21;;;;;;;57.67;30.93;;;1.40;99.90;;;;;;5027827;28;20037;-73
2022/12/10 03:54:47;;;;;;;70.23;33.17;;;1.40;99.90;;;;;;5026758;28;20108;-73
2022/12/10 03:57:12;;;;;;;59.67;35.53;;;1.40;99.90;;;;;;5023631;28;20053;-74
2022/12/10 03:59:38;;;;;;;80.63;35.60;;;1.40;99.90;;;;;;5044361;28;20576;-73
2022/12/10 04:02:04;;;;;;;55.30;32.17;;;1.40;99.90;;;;;;5029890;28;20077;-74
2022/12/10 04:04:30;;;;;;;66.80;37.37;;;1.40;99.90;;;;;;5043253;28;20049;-74
2022/12/10 04:06:55;;;;;;;72.17;34.53;;;1.50;99.90;;;;;;5045326;28;20478;-74
2022/12/10 04:09:21;;;;;;;63.93;34.83;;;1.50;99.90;;;;;;5029930;28;20072;-74
2022/12/10 04:11:46;;;;;;;79.17;36.13;;;1.50;99.90;;;;;;5025751;28;20052;-73
2022/12/10 04:16:57;;;;;;;93.20;34.63;;;1.50;99.90;;;;;;5023827;28;20569;-73
2022/12/10 04:19:23;;;;;;;66.93;29.37;;;1.50;99.90;;;;;;5029112;28;20049;-74
2022/12/10 04:27:25;;;;;;;92.20;39.17;;;1.50;99.90;;;;;;5019660;28;20407;-74
2022/12/10 04:29:51;;;;;;;56.63;33.25;;;1.60;99.90;;;;;;5023335;28;20053;-73
2022/12/10 04:32:17;;;;;;;55.93;29.20;;;1.60;99.90;;;;;;5025721;28;20037;-73
2022/12/10 04:34:43;;;;;;;61.80;33.17;;;1.60;99.90;;;;;;5025101;28;20049;-73
2022/12/10 04:37:10;;;;;;;52.13;28.00;;;1.60;99.90;;;;;;5025108;28;20053;-73
2022/12/10 04:39:36;;;;;;;97.30;35.43;;;1.60;99.90;;;;;;5024985;28;20056;-73
2022/12/10 04:42:03;;;;;;;95.90;33.50;;;1.60;99.90;;;;;;5005750;28;20128;-73
2022/12/10 04:44:28;;;;;;;136.87;37.10;;;1.60;99.90;;;;;;5007335;28;20046;-73
2022/12/10 04:46:54;;;;;;;243.83;39.83;;;1.60;99.90;;;;;;5025073;28;20406;-73
2022/12/10 04:49:19;;;;;;;70.53;30.73;;;1.60;99.90;;;;;;5024791;28;20042;-74
2022/12/10 04:51:45;;;;;;;105.47;35.63;;;1.60;99.90;;;;;;5025385;28;20460;-73
2022/12/10 04:54:12;;;;;;;124.47;40.77;;;1.60;99.90;;;;;;5024464;28;20069;-73
2022/12/10 04:56:37;;;;;;;106.43;34.87;;;1.70;99.90;;;;;;5022963;28;20056;-72
2022/12/10 04:59:04;;;;;;;80.57;30.43;;;1.60;99.90;;;;;;5023954;28;20406;-73
2022/12/10 05:01:30;;;;;;;79.40;31.70;;;1.60;99.90;;;;;;5023180;28;20053;-73
2022/12/10 05:03:59;;;;;;;72.77;24.27;;;1.60;99.90;;;;;;5023058;28;20053;-73
2022/12/10 05:06:27;;;;;;;139.97;37.50;;;1.60;99.90;;;;;;5023520;28;20136;-73
2022/12/10 05:08:53;;;;;;;50.87;24.70;;;1.60;99.90;;;;;;5023330;28;20679;-72
2022/12/10 05:11:20;;;;;;;128.33;35.30;;;1.60;99.90;;;;;;5022343;28;20048;-75
2022/12/10 05:13:46;;;;;;;105.73;35.63;;;1.60;99.90;;;;;;5023372;28;20491;-73
2022/12/10 05:16:14;;;;;;;68.40;27.07;;;1.60;99.90;;;;;;5036940;28;20099;-73
2022/12/10 05:18:40;;;;;;;66.67;27.73;;;1.60;99.90;;;;;;5039954;28;20049;-73
2022/12/10 05:21:10;;;;;;;55.27;27.83;;;1.60;99.90;;;;;;5022716;28;20399;-74
2022/12/10 05:23:37;;;;;;;97.37;31.83;;;1.60;99.90;;;;;;5023139;28;20504;-74
2022/12/10 05:26:13;;;;;;;189.90;41.63;;;1.60;99.90;;;;;;5021994;28;20045;-74
2022/12/10 05:28:57;;;;;;;140.13;43.10;;;1.60;99.90;;;;;;5029235;28;20457;-74
2022/12/10 05:31:28;;;;;;;120.77;39.70;;;1.60;99.90;;;;;;5023969;28;20528;-73
2022/12/10 05:33:55;;;;;;;114.37;38.90;;;1.60;99.90;;;;;;5022778;28;20045;-74
2022/12/10 05:36:24;;;;;;;103.60;36.77;;;1.60;99.90;;;;;;5022999;28;20514;-74
2022/12/10 05:38:50;;;;;;;77.07;28.67;;;1.60;99.90;;;;;;5039637;28;20131;-74
2022/12/10 05:41:25;;;;;;;69.10;25.87;;;1.60;99.90;;;;;;5040531;28;20091;-73
2022/12/10 05:43:53;;;;;;;93.20;27.63;;;1.60;99.90;;;;;;5025652;28;20110;-73
2022/12/10 05:46:22;;;;;;;49.10;21.03;;;1.60;99.90;;;;;;5042490;28;20053;-76
2022/12/10 05:48:48;;;;;;;47.47;19.63;;;1.60;99.90;;;;;;5027023;28;20049;-73
2022/12/10 05:51:17;;;;;;;129.50;35.67;;;1.50;99.90;;;;;;5006557;28;20049;-74
2022/12/10 05:53:42;;;;;;;102.87;30.30;;;1.60;99.90;;;;;;5023764;28;20098;-74
2022/12/10 05:56:20;;;;;;;69.20;26.20;;;1.60;99.90;;;;;;5022691;28;20599;-73
2022/12/10 05:58:47;;;;;;;109.67;28.10;;;1.50;99.90;;;;;;5024235;28;20037;-74
2022/12/10 06:01:16;;;;;;;160.63;34.97;;;1.60;99.90;;;;;;5023227;28;20050;-73
2022/12/10 06:03:42;;;;;;;109.67;29.83;;;1.60;99.90;;;;;;5024043;28;20057;-72
2022/12/10 06:06:08;;;;;;;92.43;20.07;;;1.50;99.90;;;;;;5022569;28;20049;-72
2022/12/10 06:08:34;;;;;;;53.40;19.93;;;1.50;99.90;;;;;;5022397;28;20044;-73
2022/12/10 06:11:05;;;;;;;117.23;32.17;;;1.50;99.90;;;;;;5020779;28;20045;-73
2022/12/10 06:13:31;;;;;;;67.27;22.27;;;1.60;99.90;;;;;;5022203;28;20049;-74
2022/12/10 06:15:57;;;;;;;103.20;26.10;;;1.60;99.90;;;;;;5022466;28;20541;-72
2022/12/10 06:18:22;;;;;;;160.67;34.57;;;1.60;99.90;;;;;;5023692;28;20136;-73
2022/12/10 06:20:48;;;;;;;49.73;21.03;;;1.60;99.90;;;;;;5023660;28;20049;-74
2022/12/10 06:23:14;;;;;;;71.47;22.47;;;1.60;99.90;;;;;;5024385;28;20050;-73
2022/12/10 06:25:40;;;;;;;114.50;23.03;;;1.60;99.90;;;;;;5022735;28;20382;-74
2022/12/10 06:28:06;;;;;;;39.17;17.53;;;1.60;99.90;;;;;;5039749;28;20037;-74
2022/12/10 06:30:32;;;;;;;87.10;20.53;;;1.60;99.90;;;;;;5037299;28;20045;-73
2022/12/10 06:32:58;;;;;;;67.30;23.63;;;1.60;99.90;;;;;;5023391;28;20500;-73
2022/12/10 06:35:23;;;;;;;53.07;20.90;;;1.60;99.90;;;;;;5029726;28;20045;-73
2022/12/10 06:37:50;;;;;;;80.67;24.43;;;1.60;99.90;;;;;;5042822;28;20083;-74
2022/12/10 06:40:15;;;;;;;51.50;20.93;;;1.60;99.90;;;;;;5042013;28;20041;-73
2022/12/10 06:42:41;;;;;;;41.90;19.10;;;1.60;99.90;;;;;;5040583;28;20509;-74
2022/12/10 06:45:07;;;;;;;114.77;28.10;;;1.70;99.90;;;;;;5027453;28;20052;-74
2022/12/10 06:47:33;;;;;;;81.67;26.40;;;1.60;99.90;;;;;;5022100;28;20054;-73
2022/12/10 06:49:59;;;;;;;58.07;21.77;;;1.60;99.90;;;;;;5005270;28;20254;-72
2022/12/10 06:52:25;;;;;;;62.80;21.90;;;1.60;99.90;;;;;;5029019;28;20040;-74
2022/12/10 06:54:50;;;;;;;49.20;22.53;;;1.60;99.90;;;;;;5019834;28;20056;-74
2022/12/10 06:57:16;;;;;;;47.93;20.70;;;1.60;99.90;;;;;;5040261;28;20049;-74
2022/12/10 06:59:41;;;;;;;51.57;21.73;;;1.60;99.90;;;;;;5024819;28;20088;-74
2022/12/10 07:02:11;;;;;;;53.50;18.73;;;1.60;99.90;;;;;;5035582;28;20714;-75
2022/12/10 07:04:36;;;;;;;91.77;25.33;;;1.60;99.90;;;;;;5022679;28;20153;-75
2022/12/10 07:07:02;;;;;;;47.97;17.83;;;1.60;99.90;;;;;;5022191;28;20614;-74
2022/12/10 07:09:28;;;;;;;131.37;29.17;;;1.60;99.90;;;;;;5020112;28;20045;-75
2022/12/10 07:11:53;;;;;;;84.97;27.73;;;1.60;99.90;;;;;;5019450;28;20084;-75
2022/12/10 07:14:19;;;;;;;46.17;21.57;;;1.60;99.90;;;;;;5003725;28;20045;-77
2022/12/10 07:16:45;;;;;;;78.70;25.70;;;1.60;99.90;;;;;;5021982;28;20084;-76
2022/12/10 07:19:11;;;;;;;52.30;18.20;;;1.60;99.90;;;;;;5019959;28;20060;-76
2022/12/10 07:21:39;;;;;;;46.80;20.50;;;1.60;99.90;;;;;;5022315;28;20542;-73
2022/12/10 07:24:17;;;;;;;66.70;19.93;;;1.60;99.90;;;;;;5023848;28;20095;-74
2022/12/10 07:26:45;;;;;;;56.27;21.27;;;1.60;99.90;;;;;;5024926;28;20037;-74
2022/12/10 07:29:18;;;;;;;93.40;18.97;;;1.60;99.90;;;;;;5023614;28;20103;-74
2022/12/10 07:31:44;;;;;;;;;;;1.60;99.90;;;;;;5026666;28;20531;-75
2022/12/10 07:34:10;;;;;;;53.30;23.00;;;1.60;99.90;;;;;;5024308;28;20016;-75
2022/12/10 07:36:36;;;;;;;47.90;18.23;;;1.60;99.90;;;;;;5023420;28;20046;-76
2022/12/10 07:39:06;;;;;;;59.80;20.20;;;1.60;99.90;;;;;;5025589;28;20083;-74
2022/12/10 07:41:31;;;;;;;76.33;21.63;;;1.60;99.90;;;;;;5024918;28;20057;-74
2022/12/10 07:43:57;;;;;;;62.00;22.03;;;1.60;99.90;;;;;;5038430;28;20088;-75
2022/12/10 07:46:26;;;;;;;63.33;22.40;;;1.60;99.90;;;;;;5032901;28;20115;-73
2022/12/10 07:48:52;;;;;;;87.00;23.30;;;1.60;99.90;;;;;;5034759;28;20045;-76
2022/12/10 07:51:20;;;;;;;69.47;25.17;;;1.60;99.90;;;;;;5032718;28;20052;-76
2022/12/10 07:53:46;;;;;;;103.37;28.37;;;1.60;99.90;;;;;;5029045;28;20509;-75
2022/12/10 07:56:12;;;;;;;108.13;26.43;;;1.60;99.90;;;;;;5023950;28;20054;-76
2022/12/10 07:58:42;;;;;;;90.93;30.17;;;1.60;99.90;;;;;;5024884;28;20551;-75
2022/12/10 08:01:08;;;;;;;76.40;24.50;;;1.60;99.90;;;;;;5023622;28;20045;-77
2022/12/10 08:03:34;;;;;;;84.53;28.33;;;1.70;99.90;;;;;;5023146;28;20588;-75
2022/12/10 08:06:05;;;;;;;45.13;20.10;;;1.60;99.90;;;;;;5025007;28;20037;-73
2022/12/10 08:08:33;;;;;;;127.47;37.90;;;1.70;99.90;;;;;;5017472;28;20092;-72
2022/12/10 08:11:00;;;;;;;84.17;31.53;;;1.70;99.90;;;;;;5022818;28;20033;-73
2022/12/10 08:13:25;;;;;;;68.20;25.80;;;1.70;99.90;;;;;;5025605;28;20046;-73
2022/12/10 08:15:51;;;;;;;63.30;25.80;;;1.70;99.90;;;;;;5024702;28;20076;-72
2022/12/10 08:18:16;;;;;;;71.40;24.47;;;1.70;99.90;;;;;;5025438;28;20538;-72
2022/12/10 08:20:42;;;;;;;133.00;29.63;;;1.70;99.90;;;;;;5023406;28;20037;-71
2022/12/10 08:23:08;;;;;;;74.10;26.83;;;1.70;99.90;;;;;;5023560;28;20204;-72
2022/12/10 08:25:35;;;;;;;74.33;27.43;;;1.70;99.90;;;;;;5023049;28;20693;-72
2022/12/10 08:28:02;;;;;;;77.43;28.13;;;1.70;99.90;;;;;;5024654;28;20070;-72
2022/12/10 08:30:28;;;;;;;67.80;24.83;;;1.70;99.90;;;;;;5025784;28;20450;-71
2022/12/10 08:32:54;;;;;;;73.57;26.87;;;1.70;99.90;;;;;;5016943;28;20042;-71
2022/12/10 08:35:19;;;;;;;69.57;22.27;;;1.70;99.90;;;;;;5016429;28;20116;-71
2022/12/10 08:37:45;;;;;;;78.23;26.83;;;1.70;99.90;;;;;;5023375;28;20089;-71
2022/12/10 08:40:11;;;;;;;84.47;29.10;;;1.70;99.90;;;;;;5024724;28;20403;-73
2022/12/10 08:42:36;;;;;;;72.80;28.37;;;1.70;99.90;;;;;;5021839;28;20041;-73
2022/12/10 08:45:02;;;;;;;105.93;29.10;;;1.80;99.90;;;;;;5034172;28;20374;-77
2022/12/10 08:47:28;;;;;;;56.30;25.63;;;1.80;99.90;;;;;;5023614;28;20400;-73
2022/12/10 08:49:53;;;;;;;54.40;26.33;;;1.80;99.90;;;;;;5023913;28;20124;-72
2022/12/10 08:52:19;;;;;;;69.40;25.60;;;1.80;99.90;;;;;;5024313;28;20042;-72
2022/12/10 08:54:45;;;;;;;67.43;26.63;;;1.80;99.90;;;;;;5027125;28;20041;-73
2022/12/10 08:57:10;;;;;;;91.50;31.37;;;1.80;99.90;;;;;;5022694;28;20037;-72
2022/12/10 08:59:36;;;;;;;61.10;27.00;;;1.80;99.90;;;;;;5022606;28;20038;-76
2022/12/10 09:02:01;;;;;;;51.93;25.10;;;1.80;99.90;;;;;;5022652;28;20152;-75
2022/12/10 09:04:27;;;;;;;55.20;23.97;;;1.80;99.90;;;;;;5015762;28;20578;-78
2022/12/10 09:06:52;;;;;;;58.23;23.67;;;1.90;99.90;;;;;;5005339;28;20060;-76
2022/12/10 09:09:18;;;;;;;48.63;26.70;;;1.90;99.90;;;;;;4996517;28;21814;-77
2022/12/10 09:11:45;;;;;;;72.53;28.27;;;1.90;99.90;;;;;;4991022;28;20049;-76
2022/12/10 09:14:11;;;;;;;91.13;29.63;;;1.90;99.90;;;;;;4986789;28;20650;-76
2022/12/10 09:16:39;;;;;;;82.13;27.63;;;2.00;99.90;;;;;;5003540;28;20056;-76
2022/12/10 09:19:05;;;;;;;62.13;26.20;;;1.90;99.90;;;;;;5027982;28;20526;-76
2022/12/10 09:21:31;;;;;;;80.70;27.50;;;1.90;99.90;;;;;;5022200;28;20488;-79
2022/12/10 09:23:57;;;;;;;76.80;30.67;;;1.90;99.90;;;;;;5020013;28;20650;-76
2022/12/10 09:26:23;;;;;;;71.77;28.83;;;2.00;99.90;;;;;;5020065;28;20041;-76
2022/12/10 09:28:50;;;;;;;85.03;27.50;;;2.00;99.90;;;;;;5037144;28;20361;-78
2022/12/10 09:31:18;;;;;;;47.67;23.43;;;2.00;99.90;;;;;;5020099;28;20041;-74
2022/12/10 09:33:45;;;;;;;61.00;28.50;;;2.00;99.90;;;;;;5021453;28;20034;-73
2022/12/10 09:36:11;;;;;;;79.63;27.03;;;2.00;99.90;;;;;;5021871;28;20542;-72
2022/12/10 09:38:39;;;;;;;56.27;24.40;;;2.10;99.90;;;;;;5022455;28;20527;-73
2022/12/10 09:41:31;;;;;;;61.03;28.03;;;2.00;99.90;;;;;;5020187;28;20033;-74
2022/12/10 09:44:14;;;;;;;86.57;32.27;;;2.10;99.90;;;;;;5035206;28;20167;-73
2022/12/10 09:46:55;;;;;;;108.33;32.20;;;2.10;99.90;;;;;;5038976;28;20052;-75
2022/12/10 09:50:00;;;;;;;59.17;26.13;;;2.10;99.90;;;;;;5026581;28;20039;-75
2022/12/10 09:52:32;;;;;;;75.97;29.50;;;2.10;99.90;;;;;;5020699;28;20694;-75
2022/12/10 09:55:05;;;;;;;75.03;30.43;;;2.10;99.90;;;;;;5010949;28;20141;-75
2022/12/10 09:57:45;;;;;;;59.43;26.43;;;2.10;99.90;;;;;;5032869;28;20029;-75
2022/12/10 10:00:32;;;;;;;88.90;27.33;;;2.10;99.90;;;;;;5035112;28;20060;-74
2022/12/10 10:02:59;;;;;;;77.93;30.33;;;2.10;99.90;;;;;;5015554;28;20049;-75
2022/12/10 10:05:28;;;;;;;60.37;24.43;;;2.00;99.90;;;;;;5021687;28;20038;-75
2022/12/10 10:07:56;;;;;;;60.23;26.40;;;2.00;99.90;;;;;;5021190;28;20112;-75
2022/12/10 10:10:29;;;;;;;54.00;23.93;;;2.00;99.90;;;;;;5003356;28;20423;-75
2022/12/10 10:13:00;;;;;;;;;;;2.00;99.90;;;;;;5024313;28;20392;-75
2022/12/10 10:15:32;;;;;;;40.00;19.70;;;2.00;99.90;;;;;;5020847;28;19921;-75
2022/12/10 10:18:19;;;;;;;72.73;27.63;;;2.00;99.90;;;;;;5033118;28;20479;-75
2022/12/10 10:20:45;;;;;;;65.83;27.87;;;2.00;99.90;;;;;;5025325;28;20045;-75
2022/12/10 10:23:14;;;;;;;50.43;22.10;;;2.00;99.90;;;;;;5034786;28;20129;-75
2022/12/10 10:25:40;;;;;;;48.03;23.50;;;2.00;99.90;;;;;;5020674;28;20046;-75
2022/12/10 10:28:12;;;;;;;71.10;27.77;;;2.00;99.90;;;;;;5021654;28;20041;-75
2022/12/10 10:30:41;;;;;;;73.33;25.40;;;2.00;99.90;;;;;;5034990;28;20045;-74
2022/12/10 10:33:09;;;;;;;50.75;21.80;;;2.00;99.90;;;;;;5040422;28;20119;-72
2022/12/10 10:35:47;;;;;;;78.10;24.53;;;2.00;99.90;;;;;;5031647;28;20095;-75
2022/12/10 10:38:36;;;;;;;99.73;27.83;;;2.00;99.90;;;;;;5009659;28;20049;-74
2022/12/10 10:41:04;;;;;;;58.87;24.43;;;2.00;99.90;;;;;;5022350;28;20033;-75
2022/12/10 10:43:41;;;;;;;61.10;25.23;;;2.00;99.90;;;;;;5022264;28;20473;-75
2022/12/10 10:46:13;;;;;;;68.77;26.17;;;2.00;99.90;;;;;;5023206;28;20455;-75
2022/12/10 10:48:39;;;;;;;77.57;29.92;;;2.00;99.90;;;;;;5023333;28;20084;-75
2022/12/10 10:51:18;;;;;;;63.17;24.37;;;2.00;99.90;;;;;;5023125;28;20040;-74
2022/12/10 10:53:46;;;;;;;44.23;23.67;;;2.10;99.90;;;;;;5022261;28;20042;-75
2022/12/10 10:56:17;;;;;;;87.70;32.63;;;2.10;99.90;;;;;;5021893;28;20057;-76
2022/12/10 10:59:00;;;;;;;83.73;30.57;;;2.10;99.90;;;;;;5027050;28;20052;-74
2022/12/10 11:01:47;;;;;;;68.88;26.42;;;2.10;99.90;;;;;;5026837;28;20084;-74
2022/12/10 11:04:15;;;;;;;65.80;28.07;;;2.10;99.90;;;;;;5027574;28;20057;-75
2022/12/10 11:06:41;;;;;;;58.93;28.50;;;2.20;99.90;;;;;;5026121;28;20037;-75
2022/12/10 11:09:07;;;;;;;45.67;25.10;;;2.20;99.90;;;;;;5027819;28;20048;-75
2022/12/10 11:11:40;;;;;;;55.77;24.57;;;2.20;99.90;;;;;;5025799;28;20698;-75
2022/12/10 11:14:22;;;;;;;48.97;24.60;;;2.20;99.90;;;;;;5026569;28;20145;-75
2022/12/10 11:16:47;;;;;;;51.13;24.33;;;2.20;99.90;;;;;;5028166;28;20045;-75
2022/12/10 11:19:23;;;;;;;52.77;25.77;;;2.20;99.90;;;;;;5027816;28;20049;-76
2022/12/10 11:21:49;;;;;;;43.40;21.47;;;2.20;99.90;;;;;;5028190;28;20606;-75
2022/12/10 11:24:17;;;;;;;58.87;22.93;;;2.30;99.90;;;;;;5028028;28;20495;-81
2022/12/10 11:26:49;;;;;;;35.43;19.60;;;2.30;99.90;;;;;;5025882;28;20091;-75
2022/12/10 11:29:51;;;;;;;35.08;18.10;;;2.30;99.90;;;;;;5025053;28;20536;-74
2022/12/10 11:32:28;;;;;;;44.27;19.80;;;2.30;99.90;;;;;;5028455;28;20077;-73
2022/12/10 11:35:10;;;;;;;43.97;20.23;;;2.30;99.90;;;;;;5019255;28;20491;-75
2022/12/10 11:37:39;;;;;;;32.28;20.58;;;2.30;99.90;;;;;;5034286;28;20053;-76
2022/12/10 11:40:25;;;;;;;40.23;21.53;;;2.30;99.90;;;;;;5026455;28;20041;-75
2022/12/10 11:42:54;;;;;;;37.87;23.27;;;2.30;99.90;;;;;;5028782;28;20134;-75
2022/12/10 11:45:53;;;;;;;36.67;18.10;;;2.40;99.90;;;;;;5035575;28;20049;-77
2022/12/10 11:49:06;;;;;;;45.53;23.10;;;2.30;99.90;;;;;;4994849;28;20061;-76
2022/12/10 11:52:00;;;;;;;27.67;19.20;;;2.30;99.90;;;;;;5036079;28;20039;-76
2022/12/10 11:54:32;;;;;;;39.57;21.43;;;2.30;99.90;;;;;;5024517;28;20064;-75
2022/12/10 11:57:06;;;;;;;38.10;20.25;;;2.30;99.90;;;;;;5025311;28;20050;-76
2022/12/10 11:59:36;;;;;;;43.43;19.97;;;2.30;99.90;;;;;;5025402;28;20041;-77
2022/12/10 12:02:05;;;;;;;38.93;22.20;;;2.40;99.90;;;;;;5007948;28;20049;-76
2022/12/10 12:04:55;;;;;;;42.30;22.07;;;2.30;99.90;;;;;;5026026;28;20050;-74
2022/12/10 12:07:25;;;;;;;38.77;21.57;;;2.40;99.90;;;;;;5023941;28;20057;-74
2022/12/10 12:10:13;;;;;;;43.80;22.63;;;2.40;99.90;;;;;;5027494;28;20054;-73
2022/12/10 12:12:57;;;;;;;42.53;23.57;;;2.40;99.90;;;;;;5029539;28;20412;-73
2022/12/10 12:15:32;;;;;;;39.57;20.87;;;2.40;99.90;;;;;;5028985;28;20045;-74
2022/12/10 12:18:23;;;;;;;43.53;21.73;;;2.40;99.90;;;;;;5022234;28;20060;-74
2022/12/10 12:20:54;;;;;;;51.43;20.33;;;2.40;99.90;;;;;;5012276;28;20056;-74
2022/12/10 12:23:54;;;;;;;30.33;20.42;;;2.40;99.90;;;;;;5025632;28;20722;-74
2022/12/10 12:26:24;;;;;;;35.83;21.20;;;2.40;99.90;;;;;;5030005;28;20050;-74
2022/12/10 12:29:00;;;;;;;39.03;24.07;;;2.40;99.90;;;;;;5032286;28;20646;-75
2022/12/10 12:31:37;;;;;;;36.53;19.73;;;2.40;99.90;;;;;;5027681;28;20080;-74
2022/12/10 12:34:20;;;;;;;43.27;21.97;;;2.40;99.90;;;;;;5025342;28;20041;-74
2022/12/10 12:36:47;;;;;;;40.90;20.30;;;2.40;99.90;;;;;;5024102;28;20447;-75
2022/12/10 12:39:21;;;;;;;36.27;19.37;;;2.40;99.90;;;;;;5024389;28;20045;-74
2022/12/10 12:41:55;;;;;;;32.87;17.87;;;2.40;99.90;;;;;;5026810;28;20412;-74
2022/12/10 12:44:52;;;;;;;33.77;19.20;;;2.40;99.90;;;;;;5033652;28;20041;-74
2022/12/10 12:47:29;;;;;;;40.70;19.33;;;2.40;99.90;;;;;;4994459;28;20061;-74
2022/12/10 12:49:58;;;;;;;33.67;17.43;;;2.40;99.90;;;;;;5021189;28;20095;-75
2022/12/10 12:52:29;;;;;;;34.57;17.37;;;2.40;99.90;;;;;;5025169;28;20583;-74
2022/12/10 12:55:00;;;;;;;46.00;21.83;;;2.40;99.90;;;;;;5010174;28;20049;-73
2022/12/10 12:57:46;;;;;;;22.60;17.23;;;2.40;99.90;;;;;;5031452;28;20073;-73
2022/12/10 13:00:18;;;;;;;31.20;16.80;;;2.40;99.90;;;;;;5031523;28;20037;-74
2022/12/10 13:03:29;;;;;;;27.47;15.60;;;2.40;99.90;;;;;;5028886;28;20138;-73